Hlavní strana
METAR-TAF:

METAR-TAF

Letiště :

Mezinárodní letiště Charbin Tchaj-pching

Charbin, Čína

zeměpisná šířka: 45-45N, zeměpisná délka: 126-46E, výška: 143 m

Aktuální stav počasí

Zpráva byla vytvořena před 18 minutami, v 05:00 UTC
Západoseverozápadní vítr 14 kt
Teplota 19°C
Vlhkost vzduchu 68%
Tlak 999 hPa
Viditelnost 10 km a více
Polojasno ve výšce 2300 ft
Skoro jasno ve výšce 2300 ft, Cumulonimbus.

METAR: ZYHB 200500Z 30007MPS 9999 SCT023 FEW023CB 19/13 Q0999 RETS NOSIG

Čas: 13:18 (05:18 UTC)

Předpověď počasí

Zpráva byla vytvořena před 10 hodinami a 3 minutami, v 19:15 UTC
Předpověď platná od 20 v 00 UTC do 20 v 24 UTC
Severoseverozápadní vítr 8 kt
Viditelnost: 6000 m
Polojasno ve výšce 3000 ft
Dočasný
od 20 v 00 UTC do 20 v 06 UTC
vítr z různých směrů 16 kt s nárazy do 27 kt
Polojasno ve výšce 2300 ft, Cumulonimbus.
Oblačno až skoro zataženo ve výšce 2600 ft
bouřka, déšť

TAF: ZYHB 191915Z 2000/2024 33004MPS 6000 SCT030 TX21/2006Z TN13/2020Z TEMPO 2000/2006 VRB08G14MPS TSRA SCT023CB BKN026

Stav a předpovědi počasí z více než 4 000 letišť (zprávy METAR a TAF).

Červené a žluté tečky na mapě představují dostupné meteorologické stanice.

Když kurzor umístíte na tečku, zobrazí se název stanice.

Pak kliknutím zobrazíte stav a předpověď počasí.

Chcete-li změnit mapu, kliknutím na zelené tlačítko se znaménkem +mapu přiblížíte, kliknutím na zelené tlačítko se znaménkem – mapu oddálíte a kliknutím na zelené šipky přejdete na sousední mapy.


METAR-TAF: